| time (UTC) | temp C | wind direction | speed KPH | gust KPH | rain 1hr cm | rain 24hr cm | rain mn cm | humidity % | barometer mb |
| 20260906052530 | 23 | 221 | 0.0 | 3.2 | 0.00 | 0.00 | 0.00 | 60 | 1020.7 |
| 20260906045533 | 22 | 226 | 1.6 | 3.2 | 0.00 | 0.00 | 0.00 | 61 | 1020.5 |
| 20260906042516 | 23 | 231 | 1.6 | 3.2 | 0.00 | 0.00 | 0.00 | 60 | 1020.3 |
| 20260906035519 | 23 | 201 | 0.0 | 1.6 | 0.00 | 0.00 | 0.00 | 58 | 1020.1 |
| 20260906032523 | 23 | 233 | 0.0 | 0.0 | 0.00 | 0.00 | 0.00 | 58 | 1019.7 |
| 20260906025527 | 23 | 222 | 0.0 | 0.0 | 0.00 | 0.00 | 0.00 | 57 | 1019.6 |
| 20260906022530 | 24 | 222 | 0.0 | 1.6 | 0.00 | 0.00 | 0.00 | 55 | 1019.5 |
| 20260906015533 | 24 | 226 | 1.6 | 3.2 | 0.00 | 0.00 | 0.00 | 56 | 1019.1 |
| 20260906012517 | 24 | 242 | 0.0 | 1.6 | 0.00 | 0.00 | 0.00 | 56 | 1019.3 |
| 20260906005520 | 25 | 232 | 0.0 | 1.6 | 0.00 | 0.00 | 0.00 | 56 | 1019.2 |
| 20260906002523 | 25 | 228 | 1.6 | 4.8 | 0.00 | 0.00 | 0.00 | 54 | 1019.4 |
| 20260905235526 | 25 | 227 | 1.6 | 4.8 | 0.00 | 0.00 | 0.00 | 53 | 1019.3 |
| 20260905232530 | 25 | 227 | 1.6 | 1.6 | 0.00 | 0.00 | 0.00 | 52 | 1019.2 |
| 20260905225533 | 25 | 228 | 1.6 | 4.8 | 0.00 | 0.00 | 0.00 | 52 | 1019.2 |
| 20260905222517 | 25 | 227 | 1.6 | 3.2 | 0.00 | 0.00 | 0.00 | 50 | 1019.0 |
| 20260905215520 | 25 | 235 | 1.6 | 4.8 | 0.00 | 0.00 | 0.00 | 49 | 1019.0 |
| 20260905212523 | 23 | 185 | 0.0 | 0.0 | 0.00 | 0.00 | 0.00 | 53 | 1018.8 |
| 20260905205527 | 23 | 185 | 0.0 | 0.0 | 0.00 | 0.00 | 0.00 | 50 | 1018.9 |
| 20260905202531 | 25 | 185 | 0.0 | 0.0 | 0.00 | 0.00 | 0.00 | 49 | 1018.9 |
| 20260905195535 | 26 | 185 | 0.0 | 0.0 | 0.00 | 0.00 | 0.00 | 46 | 1018.6 |
| 20260905192517 | 26 | 184 | 0.0 | 1.6 | 0.00 | 0.00 | 0.00 | 45 | 1018.6 |
| 20260905185521 | 27 | 155 | 0.0 | 1.6 | 0.00 | 0.00 | 0.00 | 43 | 1018.3 |
| 20260905182524 | 27 | 121 | 0.0 | 3.2 | 0.00 | 0.00 | 0.00 | 42 | 1017.9 |
| 20260905175528 | 28 | 107 | 1.6 | 9.7 | 0.00 | 0.00 | 0.00 | 38 | 1017.9 |
| 20260905172536 | 28 | 76 | 6.4 | 11.3 | 0.00 | 0.00 | 0.00 | 33 | 1017.4 |
| 20260905165534 | 30 | 98 | 4.8 | 12.9 | 0.00 | 0.00 | 0.00 | 33 | 1017.4 |
| 20260905162524 | 30 | 96 | 9.7 | 14.5 | 0.00 | 0.00 | 0.00 | 32 | 1017.3 |
| 20260905155521 | 32 | 95 | 11.3 | 20.9 | 0.00 | 0.00 | 0.00 | 30 | 1017.2 |
| 20260905152524 | 33 | 95 | 8.0 | 16.1 | 0.00 | 0.00 | 0.00 | 29 | 1017.3 |
| 20260905145528 | 33 | 87 | 11.3 | 20.9 | 0.00 | 0.00 | 0.00 | 32 | 1017.2 |
| 20260905142535 | 35 | 82 | 8.0 | 14.5 | 0.00 | 0.00 | 0.00 | 31 | 1017.4 |
| 20260905135534 | 35 | 56 | 9.7 | 20.9 | 0.00 | 0.00 | 0.00 | 27 | 1017.3 |
| 20260905132518 | 36 | 71 | 6.4 | 14.5 | 0.00 | 0.00 | 0.00 | 27 | 1017.5 |
| 20260905125521 | 39 | 236 | 4.8 | 12.9 | 0.00 | 0.00 | 0.00 | 20 | 1017.6 |
| 20260905122539 | 37 | 243 | 6.4 | 12.9 | 0.00 | 0.00 | 0.00 | 22 | 1017.7 |
| 20260905115528 | 37 | 237 | 6.4 | 12.9 | 0.00 | 0.00 | 0.00 | 22 | 1017.9 |
| 20260905112532 | 37 | 243 | 4.8 | 12.9 | 0.00 | 0.00 | 0.00 | 22 | 1018.1 |
| 20260905105535 | 37 | 241 | 4.8 | 14.5 | 0.00 | 0.00 | 0.00 | 21 | 1018.1 |
| 20260905102519 | 37 | 234 | 3.2 | 6.4 | 0.00 | 0.00 | 0.00 | 21 | 1017.9 |
| 20260905095522 | 37 | 247 | 3.2 | 9.7 | 0.00 | 0.00 | 0.00 | 20 | 1018.0 |
| 20260905092525 | 36 | 230 | 3.2 | 9.7 | 0.00 | 0.00 | 0.00 | 23 | 1018.0 |
| 20260905085528 | 35 | 225 | 3.2 | 6.4 | 0.00 | 0.00 | 0.00 | 26 | 1017.8 |
| 20260905082532 | 33 | 201 | 1.6 | 9.7 | 0.00 | 0.00 | 0.00 | 29 | 1017.9 |
| 20260905075535 | 31 | 240 | 4.8 | 9.7 | 0.00 | 0.00 | 0.00 | 32 | 1017.7 |
| 20260905072518 | 30 | 227 | 3.2 | 6.4 | 0.00 | 0.00 | 0.00 | 34 | 1017.5 |
| 20260905065521 | 30 | 232 | 3.2 | 4.8 | 0.00 | 0.00 | 0.00 | 35 | 1017.7 |
| 20260905062525 | 29 | 231 | 3.2 | 6.4 | 0.00 | 0.00 | 0.00 | 37 | 1017.7 |
| 20260905055528 | 28 | 233 | 4.8 | 9.7 | 0.00 | 0.00 | 0.00 | 39 | 1017.5 |